Time;durP1;ratioP1;P1;durP2;ratioP2;P2;SDS_P1;SDS_P2;PMS_P1;PMS_P2;Temp;Humidity;BMP_temperature;BMP_pressure;BME280_temperature;BME280_humidity;BME280_pressure;Samples;Min_cycle;Max_cycle;Signal;HPM_P1;HPM_P2
2021/08/05 00:03:58;;;;;;;1.92;1.80;;;;;;;17.06;81.21;99619.69;10456816;28;20059;-71
2021/08/05 00:08:59;;;;;;;2.13;1.92;;;;;;;17.01;81.38;99608.50;10457050;28;20045;-73
2021/08/05 00:14:01;;;;;;;2.08;1.88;;;;;;;16.86;81.77;99613.84;10456901;28;20090;-73
2021/08/05 00:19:03;;;;;;;2.20;1.70;;;;;;;16.74;83.01;99609.34;10456800;28;20041;-72
2021/08/05 00:24:05;;;;;;;1.90;1.80;;;;;;;16.75;82.87;99596.91;10455877;28;20064;-71
2021/08/05 00:29:06;;;;;;;2.22;1.73;;;;;;;16.85;82.61;99600.66;10456001;28;20045;-72
2021/08/05 00:34:08;;;;;;;2.40;1.63;;;;;;;16.90;82.47;99593.25;10438677;28;20406;-72
2021/08/05 00:39:10;;;;;;;2.10;1.90;;;;;;;16.90;82.23;99588.78;10438637;28;20045;-72
2021/08/05 00:44:12;;;;;;;1.60;1.50;;;;;;;17.04;81.34;99590.53;10438468;28;20033;-73
2021/08/05 00:49:14;;;;;;;2.05;1.75;;;;;;;17.05;81.04;99592.28;10437445;28;20099;-72
2021/08/05 00:54:16;;;;;;;2.70;1.80;;;;;;;17.03;81.42;99586.19;10437887;28;20114;-72
2021/08/05 00:59:18;;;;;;;2.10;1.80;;;;;;;16.95;81.77;99582.34;10455350;28;20060;-71
2021/08/05 01:04:20;;;;;;;1.90;1.48;;;;;;;16.91;81.61;99587.03;10420999;28;20037;-71
2021/08/05 01:09:43;;;;;;;1.60;1.50;;;;;;;16.87;82.36;99578.41;10455157;28;20044;-72
2021/08/05 01:14:52;;;;;;;2.75;2.00;;;;;;;16.76;83.37;99572.91;10437357;28;20190;-71
2021/08/05 01:19:58;;;;;;;2.90;2.30;;;;;;;16.63;83.17;99572.81;10454163;28;20104;-72
2021/08/05 01:25:10;;;;;;;2.05;1.95;;;;;;;16.60;83.53;99562.41;10436296;28;20063;-72
2021/08/05 01:30:13;;;;;;;2.42;2.22;;;;;;;16.75;83.25;99565.06;10454420;28;20140;-72
2021/08/05 01:35:15;;;;;;;2.05;1.90;;;;;;;16.73;83.35;99557.19;10435751;28;20098;-71
2021/08/05 01:40:17;;;;;;;2.20;1.80;;;;;;;16.83;82.85;99552.16;10435358;28;20045;-72
2021/08/05 01:45:18;;;;;;;2.58;2.30;;;;;;;16.72;83.73;99549.28;10453172;28;20136;-72
2021/08/05 01:50:21;;;;;;;2.17;2.05;;;;;;;16.69;84.10;99558.31;10436390;28;20037;-72
2021/08/05 01:55:23;;;;;;;3.58;2.53;;;;;;;16.97;81.83;99557.41;10434856;28;20041;-73
2021/08/05 02:00:26;;;;;;;3.72;2.22;;;;;;;16.73;83.64;99557.19;10434969;28;20560;-72
2021/08/05 02:05:47;;;;;;;2.97;2.67;;;;;;;16.44;85.36;99558.19;10453305;28;20072;-71
2021/08/05 02:10:50;;;;;;;2.80;2.60;;;;;;;16.61;84.84;99556.16;10435411;28;20186;-72
2021/08/05 02:15:58;;;;;;;3.10;2.53;;;;;;;16.79;83.29;99555.97;10452994;28;20041;-72
2021/08/05 02:21:02;;;;;;;3.00;2.78;;;;;;;16.71;83.56;99550.25;10435995;28;20079;-72
2021/08/05 02:26:03;;;;;;;2.80;2.55;;;;;;;16.46;85.64;99553.63;10452694;28;20069;-71
2021/08/05 02:31:07;;;;;;;2.83;2.55;;;;;;;16.47;86.15;99550.88;10434162;28;20044;-72
2021/08/05 02:36:09;;;;;;;3.53;3.33;;;;;;;16.45;86.02;99543.97;10434124;28;20051;-72
2021/08/05 02:41:12;;;;;;;3.17;2.78;;;;;;;16.42;86.57;99541.50;10434106;28;20095;-73
2021/08/05 02:46:14;;;;;;;3.22;2.95;;;;;;;16.39;86.69;99542.56;10436228;28;20121;-72
2021/08/05 02:51:17;;;;;;;3.35;3.05;;;;;;;16.55;86.08;99537.09;10459820;28;20060;-72
2021/08/05 02:56:19;;;;;;;5.18;3.17;;;;;;;16.61;84.99;99531.44;10459699;28;20194;-71
2021/08/05 03:01:22;;;;;;;5.78;2.95;;;;;;;16.58;85.24;99528.97;10495119;22;20049;-69
2021/08/05 03:06:26;;;;;;;3.15;2.88;;;;;;;16.44;86.52;99524.53;10478944;28;20061;-69
2021/08/05 03:11:27;;;;;;;2.90;2.70;;;;;;;16.51;85.93;99520.56;10494819;28;20103;-69
2021/08/05 03:16:29;;;;;;;3.95;3.65;;;;;;;16.50;86.17;99528.59;10496578;28;20064;-69
2021/08/05 03:21:31;;;;;;;3.55;3.30;;;;;;;16.50;86.19;99532.09;10496311;28;20044;-70
2021/08/05 03:26:32;;;;;;;4.68;4.38;;;;;;;16.55;85.80;99526.50;10495319;28;20036;-70
2021/08/05 03:31:34;;;;;;;4.50;4.20;;;;;;;16.51;86.13;99517.91;10478322;28;20041;-70
2021/08/05 03:36:36;;;;;;;4.30;4.00;;;;;;;16.51;86.10;99522.34;10495764;28;20079;-70
2021/08/05 03:41:37;;;;;;;4.95;4.65;;;;;;;16.63;85.22;99514.44;10495935;28;20041;-69
2021/08/05 03:46:39;;;;;;;3.75;3.55;;;;;;;16.61;85.45;99519.00;10495388;28;20102;-70
2021/08/05 03:51:41;;;;;;;4.65;3.88;;;;;;;16.69;84.81;99521.16;10494311;28;20359;-70
2021/08/05 03:56:43;;;;;;;4.35;3.95;;;;;;;16.79;83.68;99522.28;10496174;28;20464;-69
2021/08/05 04:01:45;;;;;;;4.50;4.20;;;;;;;16.51;85.51;99522.34;10495528;28;20148;-69
2021/08/05 04:06:47;;;;;;;6.07;5.57;;;;;;;16.33;86.11;99519.91;10495348;28;20448;-70
2021/08/05 04:11:48;;;;;;;5.13;4.72;;;;;;;16.31;86.77;99523.63;10495618;28;20114;-70
2021/08/05 04:16:50;;;;;;;4.65;4.22;;;;;;;16.18;87.76;99522.69;10495745;28;20041;-69
2021/08/05 04:21:53;;;;;;;5.55;5.15;;;;;;;16.11;88.47;99519.56;10477637;28;20421;-70
2021/08/05 04:26:54;;;;;;;5.85;5.43;;;;;;;16.11;88.81;99516.91;10494663;28;20047;-70
2021/08/05 04:31:56;;;;;;;6.15;5.65;;;;;;;16.18;88.62;99509.44;10495026;28;20382;-70
2021/08/05 04:36:57;;;;;;;6.65;6.15;;;;;;;16.11;88.90;99506.31;10495542;28;20119;-71
2021/08/05 04:41:59;;;;;;;6.15;5.60;;;;;;;16.19;88.61;99500.53;10494692;28;20037;-71
2021/08/05 04:47:01;;;;;;;7.40;6.72;;;;;;;16.18;88.82;99502.34;10494143;28;20051;-70
2021/08/05 04:52:03;;;;;;;6.57;6.03;;;;;;;16.21;88.92;99496.84;10493382;28;20056;-70
2021/08/05 04:57:04;;;;;;;7.50;7.00;;;;;;;16.29;88.38;99493.69;10493444;28;20087;-69
2021/08/05 05:02:06;;;;;;;7.00;6.38;;;;;;;16.30;88.92;99490.94;10492876;28;20048;-70
2021/08/05 05:07:08;;;;;;;7.00;6.50;;;;;;;16.35;88.79;99485.34;10493639;28;20063;-70
2021/08/05 05:12:09;;;;;;;7.47;6.80;;;;;;;16.51;87.94;99486.06;10474216;28;20055;-70
2021/08/05 05:17:11;;;;;;;6.82;6.32;;;;;;;16.56;87.81;99478.66;10494481;28;20433;-71
2021/08/05 05:22:13;;;;;;;7.45;6.85;;;;;;;16.63;86.91;99481.75;10475577;28;20064;-70
2021/08/05 05:27:15;;;;;;;7.75;7.15;;;;;;;16.84;85.83;99476.88;10492322;28;20044;-70
2021/08/05 05:32:16;;;;;;;8.95;8.43;;;;;;;16.62;87.61;99485.34;10491631;28;20060;-70
2021/08/05 05:37:18;;;;;;;9.02;8.13;;;;;;;16.89;86.04;99482.72;10491874;28;20222;-70
2021/08/05 05:42:22;;;;;;;8.80;8.20;;;;;;;16.93;85.61;99486.03;10490893;28;20056;-70
2021/08/05 05:47:23;;;;;;;8.43;7.68;;;;;;;16.95;85.48;99484.09;10473056;28;20050;-69
2021/08/05 05:52:25;;;;;;;8.25;7.65;;;;;;;17.20;84.16;99491.28;10490517;28;20044;-70
2021/08/05 05:57:27;;;;;;;7.50;7.00;;;;;;;17.44;82.13;99489.59;10490423;28;20374;-70
2021/08/05 06:02:28;;;;;;;7.22;6.72;;;;;;;17.35;81.30;99492.88;10490951;28;20485;-70
2021/08/05 06:07:30;;;;;;;7.22;6.75;;;;;;;17.23;82.39;99496.41;10490556;28;20041;-70
2021/08/05 06:12:32;;;;;;;6.85;6.30;;;;;;;17.30;82.37;99497.66;10490149;28;20062;-71
2021/08/05 06:17:34;;;;;;;5.95;5.43;;;;;;;17.37;81.88;99491.84;10490514;28;20051;-70
2021/08/05 06:22:37;;;;;;;6.00;5.57;;;;;;;17.65;79.22;99488.13;10495847;28;20040;-69
2021/08/05 06:27:39;;;;;;;5.35;4.95;;;;;;;17.68;80.66;99494.19;10498233;28;20127;-70
2021/08/05 06:32:42;;;;;;;5.30;4.90;;;;;;;17.98;79.30;99494.72;10480708;28;20141;-70
2021/08/05 06:37:44;;;;;;;6.07;5.68;;;;;;;17.73;79.05;99490.25;10497717;28;20092;-70
2021/08/05 06:42:46;;;;;;;6.05;5.65;;;;;;;17.92;78.32;99496.97;10498290;28;20048;-69
2021/08/05 06:47:50;;;;;;;6.95;6.30;;;;;;;17.89;78.56;99492.72;10497802;28;20092;-71
2021/08/05 06:52:51;;;;;;;6.57;6.18;;;;;;;17.98;78.44;99480.59;10497720;28;20446;-70
2021/08/05 06:57:53;;;;;;;6.03;5.53;;;;;;;18.34;77.11;99491.25;10497334;28;20052;-70
2021/08/05 07:02:54;;;;;;;6.75;6.20;;;;;;;18.22;76.79;99486.78;10496958;28;20121;-70
2021/08/05 07:07:56;;;;;;;7.05;6.35;;;;;;;18.51;77.18;99489.16;10497134;28;20068;-70
2021/08/05 07:12:58;;;;;;;6.65;6.20;;;;;;;18.36;76.54;99491.13;10496984;28;20056;-70
2021/08/05 07:17:59;;;;;;;5.75;5.30;;;;;;;18.60;75.57;99488.50;10496493;28;20041;-70
2021/08/05 07:23:01;;;;;;;7.07;6.30;;;;;;;18.29;77.00;99477.41;10496894;28;20053;-70
2021/08/05 07:28:03;;;;;;;9.63;6.78;;;;;;;18.48;76.13;99487.56;10496782;28;20070;-71
2021/08/05 07:33:04;;;;;;;6.78;6.25;;;;;;;18.82;76.81;99483.31;10495331;28;20117;-69
2021/08/05 07:38:06;;;;;;;6.05;5.75;;;;;;;19.20;73.44;99489.38;10496425;28;20103;-71
2021/08/05 07:43:08;;;;;;;6.15;5.75;;;;;;;19.59;71.03;99477.44;10495950;28;20505;-70
2021/08/05 07:48:09;;;;;;;6.93;6.38;;;;;;;20.09;68.78;99468.13;10495827;28;20482;-70
2021/08/05 07:53:11;;;;;;;5.90;5.43;;;;;;;20.37;69.49;99465.94;10496016;28;20123;-69
2021/08/05 07:58:13;;;;;;;5.70;4.60;;;;;;;20.62;67.87;99454.09;10494100;28;20056;-69
2021/08/05 08:03:15;;;;;;;6.45;4.03;;;;;;;20.38;66.68;99451.59;10495293;28;20324;-69
2021/08/05 08:08:17;;;;;;;4.22;3.92;;;;;;;20.99;64.58;99445.72;10493849;28;20064;-69
2021/08/05 08:13:19;;;;;;;3.17;2.92;;;;;;;21.36;61.11;99446.97;10479791;28;20041;-70
2021/08/05 08:18:21;;;;;;;4.35;4.15;;;;;;;21.27;61.78;99438.88;10494872;28;20466;-69
2021/08/05 08:23:24;;;;;;;3.28;3.08;;;;;;;21.86;57.86;99435.50;10476368;28;20139;-69
2021/08/05 08:28:26;;;;;;;3.45;3.17;;;;;;;22.32;58.49;99426.13;10476343;28;20044;-70
2021/08/05 08:33:27;;;;;;;2.90;2.60;;;;;;;22.57;56.96;99428.22;10475780;28;20052;-70
2021/08/05 08:38:29;;;;;;;2.25;2.05;;;;;;;22.33;54.98;99427.81;10491931;28;20405;-70
2021/08/05 08:43:31;;;;;;;1.75;1.63;;;;;;;22.61;53.86;99426.13;10493188;28;20044;-69
2021/08/05 08:48:33;;;;;;;2.55;1.60;;;;;;;22.47;53.70;99418.50;10474783;28;20054;-69
2021/08/05 08:53:37;;;;;;;4.30;2.50;;;;;;;22.18;56.12;99427.34;10492945;28;20052;-70
2021/08/05 08:58:39;;;;;;;3.22;2.92;;;;;;;21.87;58.61;99418.50;10473325;22;20048;-73
2021/08/05 09:03:41;;;;;;;4.07;3.78;;;;;;;21.36;60.88;99424.72;10497666;28;20480;-72
2021/08/05 09:08:43;;;;;;;4.00;3.70;;;;;;;21.01;62.20;99425.03;10497831;28;20094;-72
2021/08/05 09:13:45;;;;;;;5.57;5.00;;;;;;;20.85;66.55;99431.69;10497337;28;20096;-72
2021/08/05 09:18:46;;;;;;;5.28;4.78;;;;;;;20.21;71.03;99428.09;10479341;28;20062;-70
2021/08/05 09:24:03;;;;;;;4.68;4.38;;;;;;;20.21;69.55;99431.63;10496636;28;20532;-70
2021/08/05 09:29:11;;;;;;;6.32;5.93;;;;;;;19.96;76.39;99427.41;10496410;28;20044;-71
2021/08/05 09:34:31;;;;;;;4.40;4.07;;;;;;;20.14;72.32;99425.94;10496434;28;20060;-71
2021/08/05 09:39:35;;;;;;;4.15;3.85;;;;;;;20.38;69.72;99411.56;10496135;28;20051;-71
2021/08/05 09:44:37;;;;;;;3.70;3.50;;;;;;;20.29;70.06;99421.19;10495576;28;20041;-71
2021/08/05 09:49:50;;;;;;;5.20;4.82;;;;;;;19.99;76.01;99408.50;10496572;28;20133;-72
2021/08/05 09:54:52;;;;;;;3.20;2.90;;;;;;;20.11;73.33;99414.66;10495325;28;20520;-71
2021/08/05 10:00:14;;;;;;;3.65;3.45;;;;;;;20.32;72.88;99428.06;10495376;28;20487;-72
2021/08/05 10:05:18;;;;;;;4.18;3.88;;;;;;;20.57;71.11;99413.59;10495006;28;20454;-72
2021/08/05 10:10:23;;;;;;;5.72;5.20;;;;;;;20.45;72.04;99418.06;10494858;28;20048;-72
2021/08/05 10:15:26;;;;;;;15.98;7.10;;;;;;;20.23;71.52;99413.69;10494940;28;20409;-71
2021/08/05 10:20:29;;;;;;;13.02;5.55;;;;;;;20.05;74.71;99399.97;10477023;28;20044;-71
2021/08/05 10:25:31;;;;;;;4.05;3.70;;;;;;;19.93;72.74;99398.34;10494751;28;20044;-72
2021/08/05 10:30:33;;;;;;;3.25;2.95;;;;;;;19.90;74.53;99401.25;10495163;28;20106;-72
2021/08/05 10:35:36;;;;;;;2.05;1.85;;;;;;;19.70;72.54;99380.63;10495436;28;20037;-71
2021/08/05 10:40:40;;;;;;;1.35;1.25;;;;;;;19.55;69.61;99383.53;10477660;28;20056;-72
2021/08/05 10:45:42;;;;;;;1.80;1.70;;;;;;;19.81;72.40;99376.16;10494473;28;20098;-72
2021/08/05 10:50:47;;;;;;;3.75;3.17;;;;;;;19.73;74.18;99373.25;10494476;28;20040;-72
2021/08/05 10:55:49;;;;;;;3.13;2.92;;;;;;;19.81;74.31;99367.31;10494403;28;20121;-72
2021/08/05 11:00:51;;;;;;;2.75;1.85;;;;;;;20.34;67.93;99368.25;10477685;28;20084;-71
2021/08/05 11:05:53;;;;;;;3.55;3.25;;;;;;;20.16;74.37;99367.13;10477906;28;20465;-71
2021/08/05 11:11:20;;;;;;;2.65;2.45;;;;;;;20.62;68.21;99364.16;10502008;28;20082;-72
2021/08/05 11:16:49;;;;;;;2.85;1.90;;;;;;;20.25;71.35;99365.50;10484844;28;20261;-71
2021/08/05 11:21:52;;;;;;;1.58;1.40;;;;;;;20.58;65.36;99373.41;10485454;28;20090;-73
2021/08/05 11:27:15;;;;;;;1.65;1.55;;;;;;;20.46;67.04;99371.75;10484503;28;20060;-72
2021/08/05 11:32:24;;;;;;;2.67;1.52;;;;;;;20.42;65.14;99363.13;10502261;28;20063;-73
2021/08/05 11:37:26;;;;;;;1.50;1.40;;;;;;;20.35;67.56;99340.59;10483208;28;20048;-72
2021/08/05 11:42:41;;;;;;;2.13;1.63;;;;;;;20.21;68.02;99337.38;10503591;28;20485;-71
2021/08/05 11:47:45;;;;;;;1.47;1.37;;;;;;;20.36;67.18;99336.09;10467316;28;20044;-72
2021/08/05 11:52:49;;;;;;;1.40;1.30;;;;;;;20.45;68.09;99340.66;10500239;28;20044;-72
2021/08/05 11:57:59;;;;;;;1.70;1.60;;;;;;;20.64;66.06;99327.50;10482572;28;20040;-73
2021/08/05 12:03:06;;;;;;;1.70;1.38;;;;;;;20.70;67.37;99320.78;10481528;28;20055;-72
2021/08/05 12:08:09;;;;;;;1.77;1.67;;;;;;;20.86;63.57;99323.00;10501304;28;20117;-73
2021/08/05 12:13:19;;;;;;;1.60;1.50;;;;;;;20.99;63.09;99312.97;10481824;28;20049;-73
2021/08/05 12:18:23;;;;;;;1.42;1.33;;;;;;;21.11;62.48;99305.69;10481853;28;20398;-72
2021/08/05 12:23:31;;;;;;;3.03;1.60;;;;;;;20.88;63.55;99313.03;10482491;28;20045;-72
2021/08/05 12:28:37;;;;;;;2.38;1.60;;;;;;;21.14;63.28;99308.09;10484055;28;20109;-72
2021/08/05 12:33:41;;;;;;;1.93;1.83;;;;;;;21.04;65.37;99320.59;10465993;28;20048;-72
2021/08/05 12:38:52;;;;;;;1.90;1.50;;;;;;;20.53;67.99;99337.38;10502309;28;20055;-72
2021/08/05 12:44:09;;;;;;;3.55;2.50;;;;;;;19.88;71.74;99339.19;10467578;28;20102;-72
2021/08/05 12:49:12;;;;;;;3.42;3.13;;;;;;;19.07;77.66;99346.44;10484015;28;20055;-71
2021/08/05 12:54:20;;;;;;;2.75;2.35;;;;;;;18.51;79.30;99343.63;10479938;28;20052;-71
2021/08/05 12:59:25;;;;;;;3.42;3.22;;;;;;;18.25;81.61;99342.09;10498757;28;20147;-70
2021/08/05 13:04:28;;;;;;;3.58;3.28;;;;;;;18.03;82.86;99341.00;10499910;28;20062;-71
2021/08/05 13:09:31;;;;;;;3.72;3.42;;;;;;;18.06;82.66;99355.88;10479576;28;20054;-70
2021/08/05 13:14:40;;;;;;;4.30;4.00;;;;;;;17.98;84.81;99361.78;10496292;28;20044;-70
2021/08/05 13:20:04;;;;;;;4.13;3.75;;;;;;;17.77;84.37;99360.66;10497241;28;20056;-70
2021/08/05 13:25:08;;;;;;;3.78;3.45;;;;;;;17.78;83.35;99354.38;10479569;28;20045;-70
2021/08/05 13:30:15;;;;;;;3.50;3.20;;;;;;;17.71;83.25;99343.31;10477293;28;20048;-70
2021/08/05 13:35:19;;;;;;;3.83;3.58;;;;;;;17.67;84.95;99341.84;10498209;28;20048;-70
2021/08/05 13:40:22;;;;;;;3.63;3.40;;;;;;;17.70;84.40;99338.09;10478595;28;20357;-70
2021/08/05 13:45:24;;;;;;;3.08;2.72;;;;;;;17.95;81.30;99345.19;10496905;28;20032;-70
2021/08/05 13:50:29;;;;;;;3.35;3.05;;;;;;;17.97;82.31;99341.44;10497297;28;20040;-69
2021/08/05 13:55:37;;;;;;;5.25;3.20;;;;;;;18.13;81.96;99335.84;10495648;28;20110;-70
2021/08/05 14:00:38;;;;;;;2.40;2.20;;;;;;;18.07;81.38;99334.50;10495530;28;20081;-70
2021/08/05 14:05:41;;;;;;;2.60;2.28;;;;;;;17.94;79.79;99325.72;10496040;28;20104;-71
2021/08/05 14:10:44;;;;;;;2.97;2.78;;;;;;;17.94;81.90;99328.38;10477430;28;20047;-71
2021/08/05 14:15:46;;;;;;;4.13;3.83;;;;;;;17.83;85.56;99325.66;10494757;28;20143;-72
2021/08/05 14:20:48;;;;;;;3.13;2.83;;;;;;;18.25;80.70;99334.94;10494868;28;20047;-71
2021/08/05 14:25:49;;;;;;;3.20;2.90;;;;;;;18.18;81.65;99340.81;10494787;28;20087;-72
2021/08/05 14:30:54;;;;;;;3.28;2.72;;;;;;;18.17;81.57;99349.78;10495128;28;20045;-70
2021/08/05 14:35:56;;;;;;;2.88;2.60;;;;;;;18.37;80.84;99354.44;10495770;28;20058;-71
2021/08/05 14:41:05;;;;;;;3.28;3.05;;;;;;;18.23;85.03;99355.47;10496354;28;20060;-71
2021/08/05 14:46:06;;;;;;;3.70;3.40;;;;;;;18.58;82.03;99359.97;10485089;28;20052;-71
2021/08/05 14:51:09;;;;;;;6.93;6.22;;;;;;;18.38;85.96;99359.66;10502856;28;20079;-71
2021/08/05 14:56:11;;;;;;;4.18;3.97;;;;;;;18.27;86.51;99367.59;10485899;28;20057;-72
2021/08/05 15:01:13;;;;;;;4.05;3.75;;;;;;;18.53;83.42;99356.81;10514798;22;20032;-68
2021/08/05 15:06:15;;;;;;;8.07;3.58;;;;;;;18.67;81.57;99360.13;10497199;28;20123;-69
2021/08/05 15:11:16;;;;;;;3.80;3.47;;;;;;;18.64;81.05;99354.22;10496836;28;20048;-68
2021/08/05 15:16:18;;;;;;;3.45;2.55;;;;;;;18.64;79.12;99347.06;10479222;28;20114;-70
2021/08/05 15:21:20;;;;;;;2.35;2.15;;;;;;;18.26;79.96;99341.97;10497210;28;20048;-70
2021/08/05 15:26:21;;;;;;;2.67;2.47;;;;;;;17.91;84.06;99344.56;10497195;28;20101;-70
2021/08/05 15:31:23;;;;;;;2.70;2.50;;;;;;;18.17;80.18;99342.63;10478909;28;20064;-70
2021/08/05 15:36:25;;;;;;;3.80;2.63;;;;;;;18.08;80.12;99344.16;10480318;28;20140;-69
2021/08/05 15:41:28;;;;;;;3.65;2.58;;;;;;;18.14;80.38;99337.53;10497830;28;20048;-69
2021/08/05 15:46:31;;;;;;;3.00;2.65;;;;;;;18.18;81.33;99330.19;10479260;28;20183;-70
2021/08/05 15:51:32;;;;;;;3.33;3.03;;;;;;;18.06;82.88;99321.28;10497666;28;20048;-70
2021/08/05 15:56:37;;;;;;;2.58;2.33;;;;;;;18.21;80.67;99328.16;10495194;28;20094;-70
2021/08/05 16:01:39;;;;;;;2.78;2.22;;;;;;;18.18;81.46;99322.22;10495342;28;20052;-70
2021/08/05 16:06:41;;;;;;;1.80;1.70;;;;;;;18.27;80.47;99313.53;10496371;28;20105;-69
2021/08/05 16:11:42;;;;;;;2.03;1.90;;;;;;;18.32;78.80;99314.88;10495876;28;20066;-69
2021/08/05 16:16:47;;;;;;;2.65;2.50;;;;;;;18.29;83.07;99314.28;10495268;28;20100;-69
2021/08/05 16:21:49;;;;;;;2.38;2.17;;;;;;;18.46;80.93;99311.22;10477246;28;20040;-71
2021/08/05 16:26:52;;;;;;;2.28;1.85;;;;;;;18.60;79.21;99313.66;10477018;28;20110;-69
2021/08/05 16:31:54;;;;;;;1.80;1.70;;;;;;;18.53;76.41;99304.44;10477606;28;20504;-70
2021/08/05 16:36:58;;;;;;;1.52;1.42;;;;;;;18.54;76.17;99303.47;10495717;28;20105;-69
2021/08/05 16:42:00;;;;;;;2.05;1.85;;;;;;;18.55;76.64;99291.00;10495930;28;20396;-69
2021/08/05 16:47:01;;;;;;;2.83;2.08;;;;;;;18.49;76.89;99299.47;10495047;28;20591;-70
2021/08/05 16:52:04;;;;;;;2.53;2.33;;;;;;;18.35;79.30;99296.03;10494729;28;20036;-71
2021/08/05 16:57:06;;;;;;;1.92;1.80;;;;;;;18.34;78.16;99301.47;10494857;28;20434;-70
2021/08/05 17:02:08;;;;;;;2.58;2.20;;;;;;;18.18;80.45;99308.91;10494228;28;20102;-69
2021/08/05 17:07:11;;;;;;;1.80;1.70;;;;;;;18.25;78.86;99302.19;10494175;28;20115;-70
2021/08/05 17:12:14;;;;;;;1.92;1.80;;;;;;;18.31;77.55;99297.22;10493920;28;20090;-70
2021/08/05 17:17:16;;;;;;;2.92;2.47;;;;;;;18.15;79.19;99294.88;10493041;28;20152;-70
2021/08/05 17:22:23;;;;;;;2.90;2.70;;;;;;;17.95;81.12;99297.31;10492999;28;20040;-70
2021/08/05 17:27:24;;;;;;;6.40;2.47;;;;;;;17.98;79.27;99292.63;10492428;28;20405;-69
2021/08/05 17:32:27;;;;;;;4.20;2.97;;;;;;;17.83;83.17;99280.44;10492165;28;20045;-70
2021/08/05 17:37:29;;;;;;;3.70;3.40;;;;;;;17.92;81.58;99281.59;10492403;28;20065;-71
2021/08/05 17:42:31;;;;;;;4.25;3.78;;;;;;;17.84;83.25;99279.47;10488927;28;20178;-72
2021/08/05 17:47:32;;;;;;;4.22;3.90;;;;;;;17.44;85.50;99281.50;10492209;28;20086;-70
2021/08/05 17:52:34;;;;;;;4.28;3.75;;;;;;;17.21;86.27;99283.16;10491985;28;20477;-72
2021/08/05 17:57:35;;;;;;;3.22;2.92;;;;;;;17.18;86.76;99286.03;10490439;28;20481;-71
2021/08/05 18:02:37;;;;;;;3.72;3.45;;;;;;;17.33;87.03;99292.91;10459358;28;20416;-71
2021/08/05 18:07:47;;;;;;;3.50;3.15;;;;;;;17.34;87.45;99294.63;10450804;28;20116;-70
2021/08/05 18:12:49;;;;;;;4.03;3.67;;;;;;;17.38;86.44;99282.81;10484942;28;20040;-71
2021/08/05 18:17:51;;;;;;;2.95;2.75;;;;;;;17.36;87.10;99288.25;10492990;28;20129;-71
2021/08/05 18:22:53;;;;;;;4.30;4.00;;;;;;;17.29;87.71;99294.94;10476093;28;20076;-70
2021/08/05 18:27:58;;;;;;;5.05;4.18;;;;;;;17.13;88.39;99300.50;10493616;28;20186;-72
2021/08/05 18:33:00;;;;;;;3.90;3.60;;;;;;;17.18;88.29;99297.53;10491853;28;20118;-70
2021/08/05 18:38:01;;;;;;;3.95;3.55;;;;;;;17.14;88.55;99299.53;10491345;28;20127;-71
2021/08/05 18:43:04;;;;;;;2.90;2.72;;;;;;;17.11;88.77;99294.44;10491447;28;20415;-71
2021/08/05 18:48:09;;;;;;;4.40;4.10;;;;;;;17.22;88.00;99291.03;10492804;28;20044;-71
2021/08/05 18:53:12;;;;;;;11.05;3.65;;;;;;;17.06;89.55;99299.22;10490915;28;20182;-70
2021/08/05 18:58:14;;;;;;;3.70;3.42;;;;;;;17.05;89.76;99299.34;10491886;28;20091;-70
2021/08/05 19:03:15;;;;;;;5.45;5.10;;;;;;;17.44;87.71;99300.94;10472351;28;20052;-71
2021/08/05 19:08:17;;;;;;;6.43;5.90;;;;;;;17.40;87.53;99299.50;10471565;28;20041;-70
2021/08/05 19:13:19;;;;;;;5.60;5.20;;;;;;;17.13;88.99;99300.50;10491267;28;20060;-71
2021/08/05 19:18:20;;;;;;;5.50;5.10;;;;;;;17.01;89.97;99301.34;10489594;28;20478;-71
2021/08/05 19:23:22;;;;;;;6.03;5.50;;;;;;;17.13;89.21;99303.16;10490247;28;20143;-71
2021/08/05 19:28:23;;;;;;;8.18;7.38;;;;;;;17.20;88.02;99302.72;10491473;28;20041;-71
2021/08/05 19:33:26;;;;;;;8.38;7.68;;;;;;;16.88;90.21;99311.97;10478309;28;20064;-72
2021/08/05 19:38:27;;;;;;;8.45;7.95;;;;;;;16.66;92.03;99303.75;10496523;28;20184;-71
2021/08/05 19:43:29;;;;;;;8.02;7.63;;;;;;;16.85;91.05;99304.22;10496928;28;20052;-71
2021/08/05 19:48:31;;;;;;;8.82;8.13;;;;;;;16.94;89.91;99305.38;10497297;28;20094;-72
2021/08/05 19:53:34;;;;;;;11.65;10.95;;;;;;;16.69;91.65;99302.69;10496221;28;20147;-70
2021/08/05 19:58:36;;;;;;;9.57;8.98;;;;;;;16.66;92.04;99301.13;10495493;28;20052;-71
2021/08/05 20:03:37;;;;;;;9.27;8.73;;;;;;;16.64;91.84;99281.78;10495416;28;20425;-69
2021/08/05 20:08:39;;;;;;;10.60;9.85;;;;;;;16.85;91.01;99282.97;10495810;28;20086;-70
2021/08/05 20:13:40;;;;;;;8.40;7.82;;;;;;;16.91;90.85;99284.38;10494668;28;20052;-70
2021/08/05 20:18:42;;;;;;;8.30;7.70;;;;;;;16.75;91.85;99289.91;10494608;28;20119;-71
2021/08/05 20:23:44;;;;;;;8.30;7.57;;;;;;;16.76;91.76;99288.94;10495057;28;20048;-70
2021/08/05 20:28:47;;;;;;;10.63;9.05;;;;;;;16.59;92.88;99284.75;10476791;28;20052;-70
2021/08/05 20:33:50;;;;;;;9.25;8.55;;;;;;;16.48;93.56;99276.69;10495558;28;20052;-70
2021/08/05 20:38:53;;;;;;;9.45;8.85;;;;;;;16.35;94.23;99278.47;10494344;28;20497;-71
2021/08/05 20:43:55;;;;;;;9.27;8.48;;;;;;;16.62;92.76;99273.94;10476600;28;20083;-71
2021/08/05 20:48:57;;;;;;;8.35;7.75;;;;;;;16.70;92.04;99275.22;10494383;28;20040;-70
2021/08/05 20:53:59;;;;;;;8.48;7.53;;;;;;;16.49;92.79;99273.06;10493838;28;20099;-70
2021/08/05 20:59:00;;;;;;;9.98;9.27;;;;;;;16.42;93.25;99271.78;10494574;28;20140;-70
2021/08/05 21:04:02;;;;;;;9.60;8.82;;;;;;;16.27;94.39;99275.47;10510186;23;20041;-76
2021/08/05 21:09:04;;;;;;;9.10;8.40;;;;;;;16.35;94.23;99271.34;10485120;28;20144;-77
2021/08/05 21:14:06;;;;;;;8.98;8.27;;;;;;;16.64;90.92;99272.03;10483845;28;20523;-77
2021/08/05 21:19:08;;;;;;;9.55;8.70;;;;;;;16.35;92.88;99281.13;10485386;28;20040;-77
2021/08/05 21:24:09;;;;;;;10.40;9.80;;;;;;;16.13;94.66;99276.41;10484020;28;20117;-78
2021/08/05 21:29:11;;;;;;;11.25;10.35;;;;;;;16.08;95.17;99274.06;10499915;28;20117;-76
2021/08/05 21:34:12;;;;;;;13.18;12.15;;;;;;;16.05;95.74;99276.91;10482380;28;20135;-78
2021/08/05 21:39:14;;;;;;;11.88;11.18;;;;;;;16.35;93.30;99273.16;10501658;28;20054;-76
2021/08/05 21:44:16;;;;;;;11.60;10.32;;;;;;;16.30;92.96;99262.88;10465797;28;20072;-76
2021/08/05 21:49:17;;;;;;;12.75;11.85;;;;;;;16.41;92.18;99264.78;10483579;28;20393;-76
2021/08/05 21:54:19;;;;;;;16.98;15.75;;;;;;;16.15;93.67;99266.53;10500978;28;20114;-77
2021/08/05 21:59:24;;;;;;;17.75;16.58;;;;;;;16.07;94.50;99271.50;10499595;28;20063;-77
2021/08/05 22:04:25;;;;;;;25.15;23.17;;;;;;;16.14;95.03;99271.00;10499149;28;20052;-77
2021/08/05 22:09:27;;;;;;;28.02;25.33;;;;;;;16.17;94.60;99261.16;10498937;28;20044;-76
2021/08/05 22:14:28;;;;;;;23.45;21.50;;;;;;;16.09;95.01;99256.34;10497819;28;20056;-77
2021/08/05 22:19:30;;;;;;;20.77;19.27;;;;;;;16.11;95.13;99254.44;10480714;28;20079;-75
2021/08/05 22:24:32;;;;;;;22.20;20.17;;;;;;;16.44;92.32;99258.44;10481815;28;20048;-77
2021/08/05 22:29:34;;;;;;;21.75;20.05;;;;;;;16.48;91.35;99260.78;10498951;28;20036;-77
2021/08/05 22:34:36;;;;;;;23.98;22.02;;;;;;;16.32;91.77;99247.69;10481456;28;20471;-77
2021/08/05 22:39:37;;;;;;;25.40;23.00;;;;;;;16.05;93.38;99236.31;10480785;28;20113;-77
2021/08/05 22:44:43;;;;;;;25.88;23.70;;;;;;;15.81;94.22;99238.78;10497155;28;20045;-76
2021/08/05 22:49:44;;;;;;;21.67;19.95;;;;;;;15.86;93.82;99234.03;10497078;28;20106;-76
2021/08/05 22:54:46;;;;;;;24.40;22.20;;;;;;;15.89;93.15;99244.41;10498228;28;20044;-77
2021/08/05 22:59:47;;;;;;;20.92;19.20;;;;;;;15.96;91.76;99258.13;10480142;28;20048;-77
2021/08/05 23:04:49;;;;;;;21.27;19.63;;;;;;;15.88;92.34;99248.88;10485652;28;20052;-78
2021/08/05 23:09:50;;;;;;;18.08;16.65;;;;;;;15.83;92.04;99252.78;10487931;28;20452;-77
2021/08/05 23:14:53;;;;;;;18.80;17.20;;;;;;;15.73;91.88;99249.03;10505421;28;20086;-77
2021/08/05 23:19:55;;;;;;;17.02;15.82;;;;;;;15.60;92.21;99238.34;10505367;28;20055;-77
2021/08/05 23:24:57;;;;;;;13.35;12.43;;;;;;;15.48;92.80;99231.19;10504901;28;20123;-77
2021/08/05 23:29:59;;;;;;;14.10;13.27;;;;;;;15.27;93.48;99238.72;10485121;28;20090;-76